createdAt,value
2019-04-28T00:00:11.755Z,11.90
2019-04-28T00:02:43.091Z,11.40
2019-04-28T00:05:12.784Z,11.87
2019-04-28T00:07:42.491Z,12.43
2019-04-28T00:10:13.247Z,11.40
2019-04-28T00:12:42.919Z,11.10
2019-04-28T00:15:12.660Z,11.17
2019-04-28T00:17:42.321Z,11.83
2019-04-28T00:20:13.733Z,11.70
2019-04-28T00:22:46.052Z,12.23
2019-04-28T00:25:23.299Z,11.37
2019-04-28T00:27:53.244Z,10.70
2019-04-28T00:30:22.996Z,12.00
2019-04-28T00:32:52.679Z,11.50
2019-04-28T00:35:23.255Z,11.47
2019-04-28T00:37:53.025Z,11.47
2019-04-28T00:40:22.696Z,12.17
2019-04-28T00:42:52.424Z,11.57
2019-04-28T00:45:22.150Z,11.40
2019-04-28T00:47:51.830Z,11.00
2019-04-28T00:50:22.453Z,11.30
2019-04-28T00:52:52.135Z,11.20
2019-04-28T00:55:21.850Z,11.00
2019-04-28T00:57:51.528Z,10.63
2019-04-28T01:00:23.143Z,11.90
2019-04-28T01:02:53.256Z,11.40
2019-04-28T01:05:23.131Z,11.40
2019-04-28T01:07:52.819Z,11.37
2019-04-28T01:10:23.605Z,12.23
2019-04-28T01:12:53.287Z,10.53
2019-04-28T01:15:24.574Z,10.73
2019-04-28T01:17:55.834Z,11.80
2019-04-28T01:20:26.080Z,11.30
2019-04-28T01:22:55.773Z,10.40
2019-04-28T01:25:25.443Z,10.90
2019-04-28T01:27:55.810Z,10.63
2019-04-28T01:30:30.728Z,11.60
2019-04-28T01:33:02.070Z,11.00
2019-04-28T01:35:31.755Z,11.40
2019-04-28T01:38:01.426Z,11.57
2019-04-28T01:40:31.081Z,11.53
2019-04-28T01:43:00.670Z,10.00
2019-04-28T01:45:30.419Z,11.00
2019-04-28T01:48:02.196Z,10.67
2019-04-28T01:50:31.377Z,11.77
2019-04-28T01:53:01.112Z,11.00
2019-04-28T01:55:30.785Z,11.73
2019-04-28T01:58:00.445Z,11.27
2019-04-28T02:00:30.104Z,11.03
2019-04-28T02:03:00.434Z,11.57
2019-04-28T02:05:31.053Z,11.50
2019-04-28T02:08:00.724Z,11.37
2019-04-28T02:10:30.469Z,11.70
2019-04-28T02:13:00.114Z,11.47
2019-04-28T02:15:30.165Z,11.40
2019-04-28T02:18:00.264Z,11.57
2019-04-28T02:20:31.025Z,10.67
2019-04-28T02:23:05.434Z,11.17
2019-04-28T02:25:35.156Z,11.60
2019-04-28T02:28:04.728Z,11.67
2019-04-28T02:30:45.329Z,11.90
2019-04-28T02:33:05.755Z,11.47
2019-04-28T02:35:35.559Z,11.67
2019-04-28T02:38:05.354Z,11.10
2019-04-28T02:40:35.002Z,12.30
2019-04-28T02:43:04.965Z,12.10
2019-04-28T02:45:36.169Z,11.97
2019-04-28T02:48:07.443Z,12.53
2019-04-28T02:50:40.947Z,11.37
2019-04-28T02:53:17.821Z,11.37
2019-04-28T02:55:47.484Z,11.33
2019-04-28T02:58:17.159Z,11.37
2019-04-28T03:01:01.128Z,11.63
2019-04-28T03:03:18.025Z,11.93
2019-04-28T03:05:47.699Z,11.30
2019-04-28T03:08:17.314Z,11.00
2019-04-28T03:10:46.893Z,10.83
2019-04-28T03:13:16.526Z,11.07
2019-04-28T03:15:46.068Z,11.47
2019-04-28T03:18:15.747Z,11.40
2019-04-28T03:20:45.509Z,10.93
2019-04-28T03:23:15.559Z,11.63
2019-04-28T03:25:52.759Z,11.20
2019-04-28T03:28:36.392Z,11.50
2019-04-28T03:31:48.186Z,11.43
2019-04-28T03:33:54.796Z,11.47
2019-04-28T03:36:23.403Z,10.80
2019-04-28T03:38:53.134Z,11.23
2019-04-28T03:41:22.633Z,11.10
2019-04-28T03:43:52.312Z,11.33
2019-04-28T03:46:23.595Z,10.33
2019-04-28T03:48:53.205Z,11.57
2019-04-28T03:51:22.910Z,10.50
2019-04-28T03:53:52.639Z,11.00
2019-04-28T03:56:22.314Z,10.83
2019-04-28T03:58:51.921Z,11.60
2019-04-28T04:01:21.499Z,10.20
2019-04-28T04:03:51.771Z,11.17
2019-04-28T04:06:22.687Z,10.77
2019-04-28T04:08:52.622Z,10.33
2019-04-28T04:11:23.824Z,9.90
2019-04-28T04:13:55.122Z,9.40
2019-04-28T04:16:26.352Z,10.03
2019-04-28T04:19:00.499Z,10.20
2019-04-28T04:21:31.013Z,10.90
2019-04-28T04:24:00.994Z,10.33
2019-04-28T04:26:33.393Z,10.70
2019-04-28T04:29:02.233Z,9.87
2019-04-28T04:31:32.161Z,9.73
2019-04-28T04:34:03.284Z,9.70
2019-04-28T04:36:33.418Z,9.27
2019-04-28T04:39:03.481Z,10.33
2019-04-28T04:41:34.923Z,9.50
2019-04-28T04:44:04.569Z,9.77
2019-04-28T04:46:34.229Z,9.47
2019-04-28T04:49:03.913Z,9.93
2019-04-28T04:51:33.505Z,9.50
2019-04-28T04:54:03.175Z,9.27
2019-04-28T04:56:32.898Z,9.47
2019-04-28T04:59:02.963Z,8.83
2019-04-28T05:01:50.213Z,9.30
2019-04-28T05:04:39.500Z,9.47
2019-04-28T05:07:10.863Z,9.67
2019-04-28T05:09:40.528Z,9.03
2019-04-28T05:12:10.219Z,8.47
2019-04-28T05:14:39.891Z,8.67
2019-04-28T05:17:10.436Z,8.80
2019-04-28T05:19:40.294Z,8.77
2019-04-28T05:22:10.799Z,8.43
2019-04-28T05:24:54.308Z,7.80
2019-04-28T05:27:25.607Z,9.00
2019-04-28T05:29:56.995Z,8.30
2019-04-28T05:32:25.059Z,8.73
2019-04-28T05:34:54.828Z,8.23
2019-04-28T05:37:24.545Z,8.20
2019-04-28T05:39:54.148Z,8.17
2019-04-28T05:42:23.794Z,7.93
2019-04-28T05:44:53.517Z,7.83
2019-04-28T05:47:23.258Z,8.13
2019-04-28T05:49:54.484Z,7.50
2019-04-28T05:52:31.830Z,7.20
2019-04-28T05:55:12.174Z,7.30
2019-04-28T05:57:43.402Z,7.20
2019-04-28T06:00:14.919Z,7.53
2019-04-28T06:02:54.929Z,7.63
2019-04-28T06:05:17.331Z,7.60
2019-04-28T06:08:03.300Z,7.60
2019-04-28T06:10:33.003Z,7.67
2019-04-28T06:13:02.721Z,7.97
2019-04-28T06:15:32.436Z,6.70
2019-04-28T06:18:02.119Z,7.20
2019-04-28T06:20:31.809Z,7.10
2019-04-28T06:23:01.371Z,6.93
2019-04-28T06:25:30.963Z,7.40
2019-04-28T06:28:00.667Z,7.40
2019-04-28T06:30:30.371Z,7.27
2019-04-28T06:33:07.722Z,7.87
2019-04-28T06:35:32.190Z,6.33
2019-04-28T06:38:01.890Z,6.93
2019-04-28T06:40:31.452Z,6.63
2019-04-28T06:43:01.100Z,7.20
2019-04-28T06:45:30.765Z,6.90
2019-04-28T06:48:01.437Z,6.90
2019-04-28T06:50:31.134Z,7.13
2019-04-28T06:53:02.926Z,6.97
2019-04-28T06:55:32.271Z,6.70
2019-04-28T06:58:01.994Z,6.63
2019-04-28T07:00:43.883Z,7.40
2019-04-28T07:03:23.099Z,7.33
2019-04-28T07:05:44.996Z,6.40
2019-04-28T07:08:14.667Z,6.83
2019-04-28T07:10:44.316Z,6.37
2019-04-28T07:13:14.009Z,6.73
2019-04-28T07:15:43.636Z,6.63
2019-04-28T07:18:13.296Z,6.77
2019-04-28T07:20:50.340Z,7.60
2019-04-28T07:23:20.039Z,6.97
2019-04-28T07:25:49.736Z,6.00
2019-04-28T07:28:19.390Z,6.47
2019-04-28T07:30:49.130Z,7.10
2019-04-28T07:33:18.868Z,6.60
2019-04-28T07:35:48.506Z,6.50
2019-04-28T07:38:18.172Z,6.80
2019-04-28T07:40:47.854Z,6.80
2019-04-28T07:43:17.502Z,7.47
2019-04-28T07:45:47.092Z,7.65
2019-04-28T07:48:16.823Z,6.87
2019-04-28T07:50:46.491Z,6.87
2019-04-28T07:53:17.739Z,6.50
2019-04-28T07:55:47.320Z,7.07
2019-04-28T07:58:16.921Z,6.90
2019-04-28T08:00:48.773Z,6.17
2019-04-28T08:03:17.954Z,6.90
2019-04-28T08:05:47.696Z,7.00
2019-04-28T08:08:17.274Z,6.73
2019-04-28T08:10:46.893Z,6.73
2019-04-28T08:13:16.551Z,7.13
2019-04-28T08:15:46.127Z,6.80
2019-04-28T08:18:15.821Z,6.70
2019-04-28T08:20:46.470Z,6.37
2019-04-28T08:23:16.141Z,6.67
2019-04-28T08:25:45.781Z,6.47
2019-04-28T08:28:15.471Z,6.70
2019-04-28T08:30:45.136Z,6.83
2019-04-28T08:33:16.437Z,7.60
2019-04-28T08:35:46.104Z,7.40
2019-04-28T08:38:15.748Z,6.27
2019-04-28T08:40:45.402Z,7.23
2019-04-28T08:43:15.074Z,6.87
2019-04-28T08:45:44.748Z,7.00
2019-04-28T08:48:14.332Z,7.00
2019-04-28T08:50:43.934Z,6.93
2019-04-28T08:53:14.086Z,7.23
2019-04-28T08:55:43.826Z,8.13
2019-04-28T08:58:13.531Z,7.33
2019-04-28T09:00:43.199Z,8.10
2019-04-28T09:03:12.849Z,8.10
2019-04-28T09:05:42.522Z,7.50
2019-04-28T09:08:12.099Z,7.77
2019-04-28T09:10:41.799Z,7.83
2019-04-28T09:13:11.457Z,8.60
2019-04-28T09:15:41.098Z,8.67
2019-04-28T09:18:10.725Z,8.20
2019-04-28T09:20:40.397Z,9.27
2019-04-28T09:23:11.116Z,8.60
2019-04-28T09:25:40.929Z,8.83
2019-04-28T09:28:10.641Z,8.23
2019-04-28T09:30:40.447Z,8.50
2019-04-28T09:33:10.113Z,8.50
2019-04-28T09:35:39.772Z,8.37
2019-04-28T09:38:09.364Z,7.30
2019-04-28T09:40:39.024Z,7.97
2019-04-28T09:43:10.248Z,7.37
2019-04-28T09:45:50.858Z,7.77
2019-04-28T09:48:20.527Z,7.57
2019-04-28T09:50:50.184Z,7.47
2019-04-28T09:53:19.845Z,7.67
2019-04-28T09:55:49.452Z,7.20
2019-04-28T09:58:19.175Z,7.80
2019-04-28T10:00:48.863Z,7.00
2019-04-28T10:03:19.549Z,6.77
2019-04-28T10:05:49.225Z,7.03
2019-04-28T10:08:18.888Z,7.33
2019-04-28T10:10:48.560Z,7.27
2019-04-28T10:13:18.194Z,7.30
2019-04-28T10:15:47.871Z,7.03
2019-04-28T10:18:17.514Z,7.50
2019-04-28T10:20:47.091Z,7.17
2019-04-28T10:23:16.771Z,7.30
2019-04-28T10:25:46.403Z,7.20
2019-04-28T10:28:16.087Z,6.80
2019-04-28T10:30:45.808Z,6.83
2019-04-28T10:33:15.551Z,6.77
2019-04-28T10:35:45.218Z,7.10
2019-04-28T10:38:14.864Z,8.13
2019-04-28T10:40:58.248Z,7.40
2019-04-28T10:43:27.853Z,7.47
2019-04-28T10:45:57.606Z,7.60
2019-04-28T10:48:27.456Z,7.23
2019-04-28T10:50:57.226Z,7.57
2019-04-28T10:53:26.957Z,6.93
2019-04-28T10:55:56.622Z,6.90
2019-04-28T10:58:26.344Z,7.07
2019-04-28T11:01:15.338Z,6.53
2019-04-28T11:03:46.694Z,7.20
2019-04-28T11:06:16.348Z,7.20
2019-04-28T11:08:59.444Z,6.93
2019-04-28T11:11:29.232Z,6.83
2019-04-28T11:13:59.026Z,7.53
2019-04-28T11:16:30.339Z,6.70
2019-04-28T11:18:59.970Z,6.37
2019-04-28T11:21:29.489Z,7.03
2019-04-28T11:23:59.092Z,7.23
2019-04-28T11:26:28.730Z,7.10
2019-04-28T11:28:58.512Z,6.80
2019-04-28T11:31:28.240Z,6.77
2019-04-28T11:34:05.666Z,7.07
2019-04-28T11:36:35.592Z,6.97
2019-04-28T11:39:07.499Z,6.40
2019-04-28T11:41:38.722Z,6.97
2019-04-28T11:44:08.301Z,6.27
2019-04-28T11:46:38.140Z,6.80
2019-04-28T11:49:07.728Z,6.87
2019-04-28T11:51:37.447Z,6.30
2019-04-28T11:54:07.091Z,6.20
2019-04-28T11:56:41.451Z,6.67
2019-04-28T11:59:08.033Z,6.20
2019-04-28T12:01:37.739Z,6.30
2019-04-28T12:04:09.122Z,6.40
2019-04-28T12:06:41.617Z,6.03
2019-04-28T12:09:19.234Z,5.87
2019-04-28T12:11:53.229Z,5.73
2019-04-28T12:14:24.532Z,6.27
2019-04-28T12:17:14.405Z,6.00
2019-04-28T12:19:45.274Z,5.97
2019-04-28T12:22:14.907Z,5.87
2019-04-28T12:24:44.526Z,5.97
2019-04-28T12:27:14.153Z,6.10
2019-04-28T12:29:43.728Z,5.90
2019-04-28T12:32:13.452Z,6.37
2019-04-28T12:34:43.794Z,5.70
2019-04-28T12:37:15.066Z,6.37
2019-04-28T12:39:44.751Z,6.23
2019-04-28T12:42:14.406Z,6.10
2019-04-28T12:44:44.145Z,5.73
2019-04-28T12:47:13.814Z,5.87
2019-04-28T12:49:50.871Z,6.30
2019-04-28T12:52:20.605Z,5.70
2019-04-28T12:54:50.337Z,6.00
2019-04-28T12:57:20.078Z,6.03
2019-04-28T12:59:56.992Z,5.33
2019-04-28T13:02:28.228Z,5.50
2019-04-28T13:04:59.525Z,5.77
2019-04-28T13:07:29.264Z,6.20
2019-04-28T13:09:58.916Z,6.20
2019-04-28T13:12:28.499Z,6.33
2019-04-28T13:14:58.151Z,6.47
2019-04-28T13:17:27.752Z,6.87
2019-04-28T13:19:57.592Z,6.40
2019-04-28T13:22:27.233Z,7.00
2019-04-28T13:24:56.914Z,7.03
2019-04-28T13:27:26.516Z,7.00
2019-04-28T13:29:56.183Z,7.00
2019-04-28T13:32:25.855Z,6.43
2019-04-28T13:34:55.481Z,6.73
2019-04-28T13:37:25.183Z,7.13
2019-04-28T13:39:59.435Z,8.50
2019-04-28T13:42:29.093Z,6.70
2019-04-28T13:45:03.087Z,7.17
2019-04-28T13:47:32.751Z,5.90
2019-04-28T13:50:04.087Z,6.13
2019-04-28T13:52:33.826Z,6.83
2019-04-28T13:55:05.184Z,6.67
2019-04-28T13:57:34.860Z,6.07
2019-04-28T14:00:09.072Z,6.50
2019-04-28T14:02:56.982Z,6.37
2019-04-28T14:05:33.974Z,6.77
2019-04-28T14:08:03.577Z,6.07
2019-04-28T14:10:33.334Z,6.63
2019-04-28T14:13:02.926Z,6.57
2019-04-28T14:15:32.655Z,6.97
2019-04-28T14:18:02.434Z,6.30
2019-04-28T14:20:32.122Z,7.17
2019-04-28T14:23:01.635Z,6.73
2019-04-28T14:25:31.377Z,6.63
2019-04-28T14:28:00.964Z,6.53
2019-04-28T14:30:30.688Z,6.20
2019-04-28T14:33:00.367Z,6.30
2019-04-28T14:35:30.578Z,6.50
2019-04-28T14:38:00.174Z,6.27
2019-04-28T14:40:29.813Z,6.13
2019-04-28T14:42:59.471Z,6.63
2019-04-28T14:45:29.156Z,6.37
2019-04-28T14:47:58.775Z,6.23
2019-04-28T14:50:28.459Z,6.20
2019-04-28T14:52:58.009Z,5.90
2019-04-28T14:55:27.682Z,5.77
2019-04-28T14:57:57.310Z,6.00
2019-04-28T15:00:32.058Z,6.07
2019-04-28T15:03:06.103Z,5.77
2019-04-28T15:05:52.582Z,7.23
2019-04-28T15:08:40.408Z,6.63
2019-04-28T15:11:12.759Z,6.43
2019-04-28T15:13:42.310Z,6.40
2019-04-28T15:16:13.042Z,6.13
2019-04-28T15:18:42.741Z,6.00
2019-04-28T15:21:12.291Z,6.13
2019-04-28T15:23:41.957Z,6.00
2019-04-28T15:26:12.734Z,5.60
2019-04-28T15:28:42.312Z,6.17
2019-04-28T15:31:12.031Z,5.40
2019-04-28T15:33:41.783Z,5.80
2019-04-28T15:36:11.455Z,5.77
2019-04-28T15:38:41.102Z,6.20
2019-04-28T15:41:21.365Z,5.33
2019-04-28T15:43:42.067Z,5.80
2019-04-28T15:46:11.974Z,5.37
2019-04-28T15:48:41.661Z,5.80
2019-04-28T15:51:11.309Z,5.57
2019-04-28T15:53:40.971Z,6.13
2019-04-28T15:56:27.304Z,6.20
2019-04-28T15:58:57.032Z,5.63
2019-04-28T16:01:26.725Z,5.60
2019-04-28T16:03:56.476Z,5.37
2019-04-28T16:06:27.200Z,5.17
2019-04-28T16:08:56.968Z,5.00
2019-04-28T16:11:29.013Z,4.77
2019-04-28T16:13:57.906Z,5.17
2019-04-28T16:16:27.547Z,5.67
2019-04-28T16:18:57.210Z,5.03
2019-04-28T16:21:26.888Z,5.20
2019-04-28T16:23:56.608Z,5.63
2019-04-28T16:26:26.280Z,5.53
2019-04-28T16:28:55.941Z,5.40
2019-04-28T16:31:25.522Z,5.67
2019-04-28T16:33:56.143Z,5.73
2019-04-28T16:36:25.770Z,5.47
2019-04-28T16:38:55.364Z,5.97
2019-04-28T16:41:25.578Z,5.30
2019-04-28T16:43:56.981Z,6.13
2019-04-28T16:46:26.647Z,5.47
2019-04-28T16:48:56.324Z,5.90
2019-04-28T16:51:25.992Z,5.17
2019-04-28T16:53:55.584Z,5.83
2019-04-28T16:56:35.826Z,5.47
2019-04-28T16:59:18.824Z,5.90
2019-04-28T17:01:59.381Z,5.27
2019-04-28T17:04:29.011Z,5.20
2019-04-28T17:06:58.679Z,5.47
2019-04-28T17:09:28.331Z,4.73
2019-04-28T17:11:58.066Z,5.20
2019-04-28T17:14:27.744Z,5.23
2019-04-28T17:16:57.476Z,4.97
2019-04-28T17:19:27.181Z,4.90
2019-04-28T17:21:56.814Z,4.90
2019-04-28T17:24:26.545Z,4.67
2019-04-28T17:26:56.233Z,4.40
2019-04-28T17:29:26.907Z,4.90
2019-04-28T17:31:56.587Z,4.67
2019-04-28T17:34:26.758Z,4.57
2019-04-28T17:36:56.466Z,4.47
2019-04-28T17:39:26.165Z,4.40
2019-04-28T17:41:55.902Z,4.53
2019-04-28T17:44:25.559Z,4.37
2019-04-28T17:46:55.304Z,4.50
2019-04-28T17:49:26.591Z,4.63
2019-04-28T17:51:56.344Z,4.10
2019-04-28T17:54:26.034Z,4.20
2019-04-28T17:56:55.776Z,4.77
2019-04-28T17:59:25.578Z,4.20
2019-04-28T18:02:12.816Z,4.00
2019-04-28T18:05:00.356Z,4.20
2019-04-28T18:07:31.686Z,4.57
2019-04-28T18:10:01.338Z,4.90
2019-04-28T18:12:31.090Z,3.90
2019-04-28T18:15:02.388Z,3.97
2019-04-28T18:17:50.624Z,4.20
2019-04-28T18:20:20.357Z,4.43
2019-04-28T18:22:50.084Z,4.03
2019-04-28T18:25:24.009Z,4.17
2019-04-28T18:27:55.082Z,4.10
2019-04-28T18:30:26.362Z,4.53
2019-04-28T18:32:57.691Z,5.00
2019-04-28T18:35:28.980Z,4.23
2019-04-28T18:38:12.593Z,3.87
2019-04-28T18:40:43.919Z,4.30
2019-04-28T18:45:59.508Z,4.00
2019-04-28T18:48:29.179Z,4.20
2019-04-28T18:50:59.912Z,3.93
2019-04-28T18:53:29.561Z,3.70
2019-04-28T18:55:59.225Z,4.00
2019-04-28T18:58:28.872Z,4.20
2019-04-28T19:01:00.100Z,4.13
2019-04-28T19:03:29.748Z,4.30
2019-04-28T19:05:59.408Z,4.13
2019-04-28T19:08:33.732Z,3.70
2019-04-28T19:11:08.156Z,3.70
2019-04-28T19:13:42.535Z,3.80
2019-04-28T19:16:13.809Z,3.77
2019-04-28T19:18:45.109Z,3.67
2019-04-28T19:21:14.776Z,3.40
2019-04-28T19:23:44.414Z,3.80
2019-04-28T19:26:14.130Z,3.57
2019-04-28T19:28:43.843Z,3.10
2019-04-28T19:31:13.551Z,3.20
2019-04-28T19:33:43.218Z,3.50
2019-04-28T19:36:12.858Z,3.03
2019-04-28T19:38:42.539Z,3.50
2019-04-28T19:41:12.265Z,3.27
2019-04-28T19:43:42.530Z,3.10
2019-04-28T19:46:13.798Z,3.20
2019-04-28T19:48:43.475Z,3.23
2019-04-28T19:51:13.125Z,3.37
2019-04-28T19:53:42.845Z,2.80
2019-04-28T19:56:26.364Z,3.40
2019-04-28T19:59:14.454Z,3.00
2019-04-28T20:01:44.190Z,2.80
2019-04-28T20:04:13.850Z,2.80
2019-04-28T20:06:43.497Z,2.83
2019-04-28T20:09:13.088Z,2.73
2019-04-28T20:11:42.798Z,2.53
2019-04-28T20:14:12.466Z,2.77
2019-04-28T20:16:42.122Z,2.70
2019-04-28T20:19:11.840Z,2.80
2019-04-28T20:21:41.520Z,2.53
2019-04-28T20:24:11.197Z,2.70
2019-04-28T20:26:40.881Z,3.00
2019-04-28T20:29:10.518Z,2.93
2019-04-28T20:31:40.173Z,2.97
2019-04-28T20:34:09.879Z,2.80
2019-04-28T20:36:50.338Z,3.00
2019-04-28T20:39:21.630Z,2.97
2019-04-28T20:41:51.445Z,2.70
2019-04-28T20:44:21.086Z,2.53
2019-04-28T20:46:50.762Z,2.30
2019-04-28T20:49:20.330Z,2.50
2019-04-28T20:51:50.038Z,2.60
2019-04-28T20:54:19.708Z,2.40
2019-04-28T20:56:49.338Z,2.90
2019-04-28T20:59:19.019Z,2.53
2019-04-28T21:01:48.730Z,2.47
2019-04-28T21:04:18.445Z,2.50
2019-04-28T21:06:48.115Z,2.50
2019-04-28T21:09:17.748Z,2.47
2019-04-28T21:11:47.413Z,2.40
2019-04-28T21:14:17.064Z,2.90
2019-04-28T21:16:46.797Z,2.63
2019-04-28T21:19:16.443Z,2.57
2019-04-28T21:21:46.147Z,2.53
2019-04-28T21:24:17.024Z,2.90
2019-04-28T21:26:46.861Z,2.57
2019-04-28T21:29:16.613Z,2.27
2019-04-28T21:31:46.196Z,2.37
2019-04-28T21:34:15.816Z,2.33
2019-04-28T21:36:45.461Z,2.60
2019-04-28T21:39:15.112Z,2.60
2019-04-28T21:41:44.863Z,2.63
2019-04-28T21:44:18.884Z,2.10
2019-04-28T21:46:56.030Z,2.37
2019-04-28T21:49:31.193Z,2.60
2019-04-28T21:52:00.816Z,2.60
2019-04-28T21:54:30.498Z,2.60
2019-04-28T21:57:00.060Z,2.30
2019-04-28T21:59:29.708Z,2.00
2019-04-28T22:02:00.539Z,2.60
2019-04-28T22:04:30.184Z,2.27
2019-04-28T22:06:59.913Z,2.37
2019-04-28T22:09:29.625Z,2.40
2019-04-28T22:11:59.288Z,2.30
2019-04-28T22:14:28.876Z,2.27
2019-04-28T22:16:58.609Z,2.20
2019-04-28T22:19:28.246Z,2.10
2019-04-28T22:21:57.826Z,2.20
2019-04-28T22:24:29.129Z,2.30
2019-04-28T22:26:58.687Z,2.00
2019-04-28T22:29:28.289Z,2.20
2019-04-28T22:31:57.958Z,2.17
2019-04-28T22:34:27.672Z,2.20
2019-04-28T22:36:57.324Z,1.93
2019-04-28T22:39:26.980Z,2.20
2019-04-28T22:41:56.582Z,2.20
2019-04-28T22:44:26.225Z,2.10
2019-04-28T22:46:55.876Z,2.00
2019-04-28T22:49:25.575Z,2.00
2019-04-28T22:51:55.220Z,2.80
2019-04-28T22:54:30.217Z,2.10
2019-04-28T22:57:10.720Z,2.20
2019-04-28T22:59:41.920Z,1.87
2019-04-28T23:02:13.148Z,2.00
2019-04-28T23:04:50.217Z,1.93
2019-04-28T23:07:19.990Z,1.87
2019-04-28T23:09:49.632Z,2.10
2019-04-28T23:12:19.340Z,1.93
2019-04-28T23:14:49.011Z,1.87
2019-04-28T23:17:20.320Z,2.13
2019-04-28T23:19:50.021Z,2.10
2019-04-28T23:22:45.876Z,1.80
2019-04-28T23:25:06.345Z,2.43
2019-04-28T23:27:36.096Z,2.10
2019-04-28T23:30:07.386Z,2.10
2019-04-28T23:32:36.990Z,2.20
2019-04-28T23:35:06.851Z,2.10
2019-04-28T23:37:36.425Z,2.20
2019-04-28T23:40:06.898Z,1.90
2019-04-28T23:42:38.225Z,1.90
2019-04-28T23:45:08.072Z,1.80
2019-04-28T23:47:37.741Z,2.03
2019-04-28T23:50:08.878Z,2.13
2019-04-28T23:52:40.101Z,2.00
2019-04-28T23:55:10.596Z,2.23
2019-04-28T23:57:40.298Z,2.20
